Wekiva Springs, Florida
Current Conditions -  °F | °C
As of 2:53 AM on Saturday 20 Dec 2014 (Local Time) from KORL Reporting Station
Clear Clear  
Wind Chill: 14°   Ceiling: Unl
Heat Index: 14°   Visibility: 10mi
Dew Point: 12°   Wind: 0mph
Humidity: 84%   Direction: NA
Pressure: 30.06"   Gusts: NA
Location:  28.7°N, 81.42°W
Report Text: KORL 200753Z AUTO 00000KT 10SM CLR 14/12 A3006 RMK AO2 SLP183 T01440117
Loading
Personal Weather Stations






























Interactive Weather Map New forecast layout! Learn more

10-Day Weather Forecast

Advertisements
Track Severe Weather on mobile